KSCK Airport (Stockton Metropolitan) Information

FAA: SCK - ICAO: KSCK

KSCK Airport Location

State California
County San Joaquin
City Stockton
KSCK Airport is 3 miles southeast of Stockton, CA.
Latitude 37-53-39.8770N
Longitude 121-14-19.4640W
Elevation 33ft

KSCK Airport METARs

METAR KSCK 201855Z VRB04KT 10SM CLR 31/11 A2979 RMK AO2 SLP087 T03060111
Altimeter 29.79"
Temperature 30.6°C (87.1°F)
Wind 0° at 4KT
Clouds Skies are clear.
Visibility 10.0mi
Time observed: 2021-06-20T18:55:00Z

KSCK Airport Details

Status Operational
Activation April 1940
Ownership Public
Usage Public
Chart SAN FRANCISCO
ATC on-site Yes
Beacon schedule sunset-sunrise
Beacon color clear green

KSCK Airport Contacts

Owner COUNTY OF SAN JOAQUIN
Owner address 5000 S AIRPORT WAY, STOCKTON, CA 95206
Owner phone 209-468-4700
Manager RICH BELLI
Manager address 2170 SOUTH AVENUE, SOUTH LAKE TAHOE, CA 96150
Manager phone 530-543-5521

KSCK Airport (Stockton Metropolitan) Radio Frequencies

KSCK (Airport) Radio Frequencies

UNICOM 122.95
Common traffic advisory frequency (CTAF) 120.3